Briefing drone pour Saint-pierre-d'albigny

Rechercher une autre localisation

Conditions de vol :


Nous sommes le : Jeudi 01 octobre 2020
Il est 21:38 UTC (23:38 LT)

Lever de soleil : 05:07 UTC (07:07 LT)
Coucher de soleil : 17:42 UTC (19:42 LT)

Météo

L'essentiel des conditions de vol

VIGILANCE MÉTÉO FRANCE - Savoie (73)
Vigilance Jaune : Pluie-inondation
METAR de LFLB
LFLB 012130Z AUTO 20005KT CAVOK 14/12 Q1004

Date d'émission: 01/10/2020
Heure d'émission: 21:30 UTC
Vent: 200° pour 5 KT (9 km/h)
Visibilité horizontale: > 10 km
Plafond : Plafond et visibilité OK (CAVOK)
Température: 14 °C
Point de rosée: 12 °C
Humidité: 88%
Pression (QNH): 1004 hPa
TAF de LFLB
LFLB 012011Z 0120/0215 CNL

Conditions prévues :

Heure d'émission : Bulletin éffectué le 01 à 20:00 UTC
Prévision : Valide du 01 a 20:00 UTC au 02 a 15:00 UTC
Nuages : à 0ft (0 m)
WEBCAM POUR SAINT-PIERRE-D'ALBIGNY

Réglementation

Voler en sécurité

CARTES AERONAUTIQUE 1/500.000
CARTES VAC (LFLB)
SUP AIP




Chargement des AIP...
NOTAM (SAINT-PIERRE-D'ALBIGNY + Terrain à proximité / FIR )




Chargement des NOTAMS...
CONTACT PREFECTURE 73


Avertissement : Les données mises à disposition sont indicatives. Oxygène Drone ne pourra être tenu responsable de dégâts causés aux biens et aux personnes.